Terminal Aerodrome Forecast
Issued by NWS

Home | Current Version | Previous Version | Graphics & Text | Print | Product List | Glossary On
Versions: 1 2 3 4 5 6 7 8 9 10 11 12 13 14 15 16 17 18 19 20 21 22
000
FTUS41 KCLE 261855 AAA
TAFFDY
TAF AMD
KFDY 261855Z 2619/2718 04012KT P6SM OVC012
      TEMPO 2619/2622 2SM BR OVC006
     FM270000 04015KT P6SM OVC012
     FM271400 04012KT P6SM SCT012 OVC035=

USA.gov is the U.S. government's official web portal to all federal, state and local government web resources and services.